sensor_id;sensor_type;location;lat;lon;timestamp;pressure;altitude;pressure_sealevel;temperature
64184;BMP280;50485;49.768;8.636;2022-09-09T00:01:32;99779.47;;;22.92
64184;BMP280;50485;49.768;8.636;2022-09-09T00:04:12;99786.06;;;22.91
64184;BMP280;50485;49.768;8.636;2022-09-09T00:06:50;99793.47;;;22.94
64184;BMP280;50485;49.768;8.636;2022-09-09T00:09:18;99785.75;;;22.89
64184;BMP280;50485;49.768;8.636;2022-09-09T00:12:01;99780.63;;;22.91
64184;BMP280;50485;49.768;8.636;2022-09-09T00:16:58;99779.78;;;22.98
64184;BMP280;50485;49.768;8.636;2022-09-09T00:22:23;99777.06;;;22.98
64184;BMP280;50485;49.768;8.636;2022-09-09T00:24:50;99768.50;;;22.96
64184;BMP280;50485;49.768;8.636;2022-09-09T00:30:12;99777.81;;;22.98
64184;BMP280;50485;49.768;8.636;2022-09-09T00:32:37;99778.63;;;22.99
64184;BMP280;50485;49.768;8.636;2022-09-09T00:37:31;99778.63;;;22.99
64184;BMP280;50485;49.768;8.636;2022-09-09T00:39:57;99772.34;;;22.98
64184;BMP280;50485;49.768;8.636;2022-09-09T00:42:25;99770.78;;;23.01
64184;BMP280;50485;49.768;8.636;2022-09-09T00:45:17;99773.53;;;22.97
64184;BMP280;50485;49.768;8.636;2022-09-09T00:57:38;99783.72;;;22.97
64184;BMP280;50485;49.768;8.636;2022-09-09T01:00:17;99786.44;;;22.97
64184;BMP280;50485;49.768;8.636;2022-09-09T01:07:52;99771.97;;;23.00
64184;BMP280;50485;49.768;8.636;2022-09-09T01:13:02;99781.00;;;22.97
64184;BMP280;50485;49.768;8.636;2022-09-09T01:15:30;99780.59;;;22.95
64184;BMP280;50485;49.768;8.636;2022-09-09T01:20:29;99767.34;;;22.90
64184;BMP280;50485;49.768;8.636;2022-09-09T01:25:29;99772.38;;;22.95
64184;BMP280;50485;49.768;8.636;2022-09-09T01:27:56;99773.97;;;22.96
64184;BMP280;50485;49.768;8.636;2022-09-09T01:30:21;99763.81;;;22.96
64184;BMP280;50485;49.768;8.636;2022-09-09T01:32:52;99757.63;;;22.89
64184;BMP280;50485;49.768;8.636;2022-09-09T01:37:45;99758.72;;;22.95
64184;BMP280;50485;49.768;8.636;2022-09-09T01:40:11;99762.28;;;22.92
64184;BMP280;50485;49.768;8.636;2022-09-09T01:42:36;99768.50;;;22.96
64184;BMP280;50485;49.768;8.636;2022-09-09T01:45:02;99766.16;;;22.94
64184;BMP280;50485;49.768;8.636;2022-09-09T01:47:27;99768.50;;;22.96
64184;BMP280;50485;49.768;8.636;2022-09-09T01:49:52;99769.31;;;22.93
64184;BMP280;50485;49.768;8.636;2022-09-09T01:52:18;99770.84;;;22.94
64184;BMP280;50485;49.768;8.636;2022-09-09T01:54:43;99774.34;;;22.94
64184;BMP280;50485;49.768;8.636;2022-09-09T01:59:42;99766.19;;;22.91
64184;BMP280;50485;49.768;8.636;2022-09-09T02:04:59;99779.50;;;22.89
64184;BMP280;50485;49.768;8.636;2022-09-09T02:07:37;99762.28;;;22.92
64184;BMP280;50485;49.768;8.636;2022-09-09T02:10:09;99762.66;;;22.90
64184;BMP280;50485;49.768;8.636;2022-09-09T02:12:36;99767.78;;;22.88
64184;BMP280;50485;49.768;8.636;2022-09-09T02:15:05;99761.53;;;22.88
64184;BMP280;50485;49.768;8.636;2022-09-09T02:17:33;99758.44;;;22.86
64184;BMP280;50485;49.768;8.636;2022-09-09T02:20:07;99768.91;;;22.91
64184;BMP280;50485;49.768;8.636;2022-09-09T02:22:33;99775.97;;;22.92
64184;BMP280;50485;49.768;8.636;2022-09-09T02:24:59;99770.09;;;22.90
64184;BMP280;50485;49.768;8.636;2022-09-09T02:27:25;99774.03;;;22.89
64184;BMP280;50485;49.768;8.636;2022-09-09T02:29:51;99781.06;;;22.82
64184;BMP280;50485;49.768;8.636;2022-09-09T02:32:17;99779.13;;;22.83
64184;BMP280;50485;49.768;8.636;2022-09-09T02:34:49;99779.56;;;22.81
64184;BMP280;50485;49.768;8.636;2022-09-09T02:37:15;99782.31;;;22.74
64184;BMP280;50485;49.768;8.636;2022-09-09T02:39:42;99786.56;;;22.79
64184;BMP280;50485;49.768;8.636;2022-09-09T02:42:07;99787.34;;;22.79
64184;BMP280;50485;49.768;8.636;2022-09-09T02:44:33;99782.28;;;22.81
64184;BMP280;50485;49.768;8.636;2022-09-09T02:49:53;99779.19;;;22.72
64184;BMP280;50485;49.768;8.636;2022-09-09T02:52:32;99771.75;;;22.76
64184;BMP280;50485;49.768;8.636;2022-09-09T02:55:01;99769.44;;;22.75
64184;BMP280;50485;49.768;8.636;2022-09-09T02:57:29;99776.41;;;22.79
64184;BMP280;50485;49.768;8.636;2022-09-09T02:59:56;99776.81;;;22.81
64184;BMP280;50485;49.768;8.636;2022-09-09T03:02:22;99768.22;;;22.79
64184;BMP280;50485;49.768;8.636;2022-09-09T03:04:47;99782.28;;;22.81
64184;BMP280;50485;49.768;8.636;2022-09-09T03:07:16;99779.91;;;22.80
64184;BMP280;50485;49.768;8.636;2022-09-09T03:09:42;99778.00;;;22.77
64184;BMP280;50485;49.768;8.636;2022-09-09T03:12:07;99781.13;;;22.75
64184;BMP280;50485;49.768;8.636;2022-09-09T03:14:32;99775.25;;;22.80
64184;BMP280;50485;49.768;8.636;2022-09-09T03:16:57;99776.41;;;22.79
64184;BMP280;50485;49.768;8.636;2022-09-09T03:19:25;99772.94;;;22.75
64184;BMP280;50485;49.768;8.636;2022-09-09T03:21:50;99779.16;;;22.79
64184;BMP280;50485;49.768;8.636;2022-09-09T03:24:16;99781.06;;;22.82
64184;BMP280;50485;49.768;8.636;2022-09-09T03:26:41;99779.53;;;22.85
64184;BMP280;50485;49.768;8.636;2022-09-09T03:29:09;99788.50;;;22.82
64184;BMP280;50485;49.768;8.636;2022-09-09T03:31:34;99778.81;;;22.74
64184;BMP280;50485;49.768;8.636;2022-09-09T03:34:01;99790.09;;;22.76
64184;BMP280;50485;49.768;8.636;2022-09-09T03:36:27;99787.78;;;22.78
64184;BMP280;50485;49.768;8.636;2022-09-09T03:38:53;99795.53;;;22.79
64184;BMP280;50485;49.768;8.636;2022-09-09T03:41:19;99792.81;;;22.79
64184;BMP280;50485;49.768;8.636;2022-09-09T03:43:46;99794.75;;;22.79
64184;BMP280;50485;49.768;8.636;2022-09-09T03:46:11;99796.34;;;22.76
64184;BMP280;50485;49.768;8.636;2022-09-09T03:48:36;99788.19;;;22.73
64184;BMP280;50485;49.768;8.636;2022-09-09T03:51:01;99794.78;;;22.75
64184;BMP280;50485;49.768;8.636;2022-09-09T03:53:28;99790.50;;;22.74
64184;BMP280;50485;49.768;8.636;2022-09-09T03:55:54;99785.44;;;22.73
64184;BMP280;50485;49.768;8.636;2022-09-09T03:58:20;99782.69;;;22.76
64184;BMP280;50485;49.768;8.636;2022-09-09T04:01:04;99777.97;;;22.80
64184;BMP280;50485;49.768;8.636;2022-09-09T04:03:30;99773.28;;;22.81
64184;BMP280;50485;49.768;8.636;2022-09-09T04:05:56;99765.50;;;22.79
64184;BMP280;50485;49.768;8.636;2022-09-09T04:08:21;99769.84;;;22.70
64184;BMP280;50485;49.768;8.636;2022-09-09T04:10:48;99764.41;;;22.70
64184;BMP280;50485;49.768;8.636;2022-09-09T04:13:14;99768.69;;;22.71
64184;BMP280;50485;49.768;8.636;2022-09-09T04:15:40;99765.56;;;22.69
64184;BMP280;50485;49.768;8.636;2022-09-09T04:18:05;99762.44;;;22.70
64184;BMP280;50485;49.768;8.636;2022-09-09T04:20:31;99771.00;;;22.72
64184;BMP280;50485;49.768;8.636;2022-09-09T04:22:56;99775.28;;;22.73
64184;BMP280;50485;49.768;8.636;2022-09-09T04:25:21;99769.09;;;22.69
64184;BMP280;50485;49.768;8.636;2022-09-09T04:27:46;99773.78;;;22.69
64184;BMP280;50485;49.768;8.636;2022-09-09T04:30:12;99776.84;;;22.74
64184;BMP280;50485;49.768;8.636;2022-09-09T04:32:37;99779.19;;;22.72
64184;BMP280;50485;49.768;8.636;2022-09-09T04:35:03;99778.81;;;22.74
64184;BMP280;50485;49.768;8.636;2022-09-09T04:37:28;99785.06;;;22.71
64184;BMP280;50485;49.768;8.636;2022-09-09T04:39:53;99773.38;;;22.70
64184;BMP280;50485;49.768;8.636;2022-09-09T04:42:19;99773.38;;;22.70
64184;BMP280;50485;49.768;8.636;2022-09-09T04:44:44;99779.63;;;22.67
64184;BMP280;50485;49.768;8.636;2022-09-09T04:47:09;99785.97;;;22.54
64184;BMP280;50485;49.768;8.636;2022-09-09T04:49:35;99791.72;;;22.63
64184;BMP280;50485;49.768;8.636;2022-09-09T04:52:01;99786.66;;;22.65
64184;BMP280;50485;49.768;8.636;2022-09-09T04:54:26;99784.72;;;22.65
64184;BMP280;50485;49.768;8.636;2022-09-09T04:56:52;99785.09;;;22.67
64184;BMP280;50485;49.768;8.636;2022-09-09T04:59:17;99794.47;;;22.63
64184;BMP280;50485;49.768;8.636;2022-09-09T05:01:43;99795.28;;;22.56
64184;BMP280;50485;49.768;8.636;2022-09-09T05:04:08;99790.66;;;22.49
64184;BMP280;50485;49.768;8.636;2022-09-09T05:06:34;99789.16;;;22.38
64184;BMP280;50485;49.768;8.636;2022-09-09T05:09:01;99794.63;;;22.34
64184;BMP280;50485;49.768;8.636;2022-09-09T05:11:27;99802.44;;;22.36
64184;BMP280;50485;49.768;8.636;2022-09-09T05:13:53;99799.66;;;22.43
64184;BMP280;50485;49.768;8.636;2022-09-09T05:16:18;99816.06;;;22.39
64184;BMP280;50485;49.768;8.636;2022-09-09T05:18:44;99813.72;;;22.41
64184;BMP280;50485;49.768;8.636;2022-09-09T05:21:12;99818.03;;;22.35
64184;BMP280;50485;49.768;8.636;2022-09-09T05:23:38;99818.81;;;22.29
64184;BMP280;50485;49.768;8.636;2022-09-09T05:26:04;99818.84;;;22.25
64184;BMP280;50485;49.768;8.636;2022-09-09T05:28:29;99825.06;;;22.33
64184;BMP280;50485;49.768;8.636;2022-09-09T05:31:02;99829.72;;;22.29
64184;BMP280;50485;49.768;8.636;2022-09-09T05:33:33;99832.41;;;22.46
64184;BMP280;50485;49.768;8.636;2022-09-09T05:35:59;99822.28;;;22.43
64184;BMP280;50485;49.768;8.636;2022-09-09T05:38:26;99823.47;;;22.39
64184;BMP280;50485;49.768;8.636;2022-09-09T05:40:52;99827.44;;;22.27
64184;BMP280;50485;49.768;8.636;2022-09-09T05:43:17;99836.78;;;22.30
64184;BMP280;50485;49.768;8.636;2022-09-09T05:45:43;99821.94;;;22.31
64184;BMP280;50485;49.768;8.636;2022-09-09T05:48:08;99833.66;;;22.28
64184;BMP280;50485;49.768;8.636;2022-09-09T05:50:33;99838.72;;;22.29
64184;BMP280;50485;49.768;8.636;2022-09-09T05:52:58;99832.88;;;22.31
64184;BMP280;50485;49.768;8.636;2022-09-09T05:55:24;99843.03;;;22.23
64184;BMP280;50485;49.768;8.636;2022-09-09T05:57:50;99844.19;;;22.29
64184;BMP280;50485;49.768;8.636;2022-09-09T06:00:16;99847.72;;;22.26
64184;BMP280;50485;49.768;8.636;2022-09-09T06:02:42;99849.25;;;22.27
64184;BMP280;50485;49.768;8.636;2022-09-09T06:05:07;99849.22;;;22.38
64184;BMP280;50485;49.768;8.636;2022-09-09T06:07:33;99851.53;;;22.39
64184;BMP280;50485;49.768;8.636;2022-09-09T06:09:58;99843.72;;;22.45
64184;BMP280;50485;49.768;8.636;2022-09-09T06:12:24;99844.47;;;22.49
64184;BMP280;50485;49.768;8.636;2022-09-09T06:14:50;99855.81;;;22.51
64184;BMP280;50485;49.768;8.636;2022-09-09T06:17:15;99851.28;;;22.93
64184;BMP280;50485;49.768;8.636;2022-09-09T06:19:41;99850.84;;;22.94
64184;BMP280;50485;49.768;8.636;2022-09-09T06:22:06;99847.03;;;22.88
64184;BMP280;50485;49.768;8.636;2022-09-09T06:24:31;99845.88;;;22.86
64184;BMP280;50485;49.768;8.636;2022-09-09T06:26:57;99834.97;;;22.75
64184;BMP280;50485;49.768;8.636;2022-09-09T06:29:23;99842.03;;;22.72
64184;BMP280;50485;49.768;8.636;2022-09-09T06:31:48;99853.22;;;22.96
64184;BMP280;50485;49.768;8.636;2022-09-09T06:34:13;99850.09;;;23.42
64184;BMP280;50485;49.768;8.636;2022-09-09T06:36:38;99848.69;;;23.27
64184;BMP280;50485;49.768;8.636;2022-09-09T06:39:04;99851.91;;;23.11
64184;BMP280;50485;49.768;8.636;2022-09-09T06:41:30;99858.22;;;23.01
64184;BMP280;50485;49.768;8.636;2022-09-09T06:43:55;99852.03;;;22.97
64184;BMP280;50485;49.768;8.636;2022-09-09T06:46:21;99862.97;;;22.97
64184;BMP280;50485;49.768;8.636;2022-09-09T06:48:47;99866.38;;;23.11
64184;BMP280;50485;49.768;8.636;2022-09-09T06:51:19;99863.38;;;22.95
64184;BMP280;50485;49.768;8.636;2022-09-09T06:53:49;99862.97;;;22.93
64184;BMP280;50485;49.768;8.636;2022-09-09T06:56:19;99861.47;;;22.89
64184;BMP280;50485;49.768;8.636;2022-09-09T06:58:44;99865.00;;;22.78
64184;BMP280;50485;49.768;8.636;2022-09-09T07:01:11;99867.75;;;22.78
64184;BMP280;50485;49.768;8.636;2022-09-09T07:03:37;99868.88;;;22.84
64184;BMP280;50485;49.768;8.636;2022-09-09T07:06:03;99853.31;;;22.81
64184;BMP280;50485;49.768;8.636;2022-09-09T07:08:28;99862.97;;;22.90
64184;BMP280;50485;49.768;8.636;2022-09-09T07:11:01;99844.25;;;22.92
64184;BMP280;50485;49.768;8.636;2022-09-09T07:13:26;99850.06;;;22.94
64184;BMP280;50485;49.768;8.636;2022-09-09T07:15:52;99848.88;;;22.98
64184;BMP280;50485;49.768;8.636;2022-09-09T07:18:17;99855.53;;;22.94
64184;BMP280;50485;49.768;8.636;2022-09-09T07:20:42;99851.31;;;22.89
64184;BMP280;50485;49.768;8.636;2022-09-09T07:23:08;99847.03;;;22.88
64184;BMP280;50485;49.768;8.636;2022-09-09T07:25:33;99854.81;;;22.86
64184;BMP280;50485;49.768;8.636;2022-09-09T07:27:58;99852.06;;;22.90
64184;BMP280;50485;49.768;8.636;2022-09-09T07:30:23;99849.28;;;22.93
64184;BMP280;50485;49.768;8.636;2022-09-09T07:32:50;99865.34;;;22.88
64184;BMP280;50485;49.768;8.636;2022-09-09T07:35:15;99860.28;;;22.86
64184;BMP280;50485;49.768;8.636;2022-09-09T07:37:41;99871.19;;;22.86
64184;BMP280;50485;49.768;8.636;2022-09-09T07:40:06;99868.50;;;22.82
64184;BMP280;50485;49.768;8.636;2022-09-09T07:42:31;99863.03;;;22.82
64184;BMP280;50485;49.768;8.636;2022-09-09T07:44:56;99871.63;;;22.81
64184;BMP280;50485;49.768;8.636;2022-09-09T07:47:21;99866.94;;;22.89
64184;BMP280;50485;49.768;8.636;2022-09-09T07:49:47;99863.72;;;22.94
64184;BMP280;50485;49.768;8.636;2022-09-09T07:52:14;99863.75;;;22.90
64184;BMP280;50485;49.768;8.636;2022-09-09T07:54:39;99867.25;;;22.91
64184;BMP280;50485;49.768;8.636;2022-09-09T07:57:05;99872.28;;;23.03
64184;BMP280;50485;49.768;8.636;2022-09-09T07:59:30;99867.59;;;23.03
64184;BMP280;50485;49.768;8.636;2022-09-09T08:01:55;99874.63;;;23.04
64184;BMP280;50485;49.768;8.636;2022-09-09T08:04:21;99881.59;;;23.05
64184;BMP280;50485;49.768;8.636;2022-09-09T08:06:50;99880.84;;;23.01
64184;BMP280;50485;49.768;8.636;2022-09-09T08:09:17;99882.41;;;23.06
64184;BMP280;50485;49.768;8.636;2022-09-09T08:11:43;99883.50;;;23.19
64184;BMP280;50485;49.768;8.636;2022-09-09T08:14:09;99893.63;;;23.22
64184;BMP280;50485;49.768;8.636;2022-09-09T08:16:42;99898.06;;;23.95
64184;BMP280;50485;49.768;8.636;2022-09-09T08:19:08;99892.91;;;24.65
64184;BMP280;50485;49.768;8.636;2022-09-09T08:21:34;99878.94;;;24.86
64184;BMP280;50485;49.768;8.636;2022-09-09T08:24:02;99889.56;;;25.07
64184;BMP280;50485;49.768;8.636;2022-09-09T08:26:28;99892.97;;;25.15
64184;BMP280;50485;49.768;8.636;2022-09-09T08:28:54;99893.63;;;24.72
64184;BMP280;50485;49.768;8.636;2022-09-09T08:31:21;99879.25;;;24.34
64184;BMP280;50485;49.768;8.636;2022-09-09T08:33:47;99893.41;;;24.26
64184;BMP280;50485;49.768;8.636;2022-09-09T08:36:13;99902.69;;;24.01
64184;BMP280;50485;49.768;8.636;2022-09-09T08:38:40;99908.16;;;24.01
64184;BMP280;50485;49.768;8.636;2022-09-09T08:43:43;99901.72;;;23.81
64184;BMP280;50485;49.768;8.636;2022-09-09T08:46:21;99908.31;;;23.87
64184;BMP280;50485;49.768;8.636;2022-09-09T08:51:34;99901.66;;;23.88
64184;BMP280;50485;49.768;8.636;2022-09-09T08:53:59;99905.19;;;23.85
64184;BMP280;50485;49.768;8.636;2022-09-09T08:56:27;99902.84;;;23.87
64184;BMP280;50485;49.768;8.636;2022-09-09T08:58:55;99899.78;;;23.78
64184;BMP280;50485;49.768;8.636;2022-09-09T09:01:25;99903.59;;;23.88
64184;BMP280;50485;49.768;8.636;2022-09-09T09:04:05;99912.22;;;23.86
64184;BMP280;50485;49.768;8.636;2022-09-09T09:11:35;99897.16;;;25.23
64184;BMP280;50485;49.768;8.636;2022-09-09T09:14:02;99897.94;;;25.47
64184;BMP280;50485;49.768;8.636;2022-09-09T09:18:53;99892.00;;;26.51
64184;BMP280;50485;49.768;8.636;2022-09-09T09:21:21;99906.72;;;26.41
64184;BMP280;50485;49.768;8.636;2022-09-09T09:23:56;99902.16;;;26.87
64184;BMP280;50485;49.768;8.636;2022-09-09T09:26:23;99897.03;;;26.17
64184;BMP280;50485;49.768;8.636;2022-09-09T09:28:49;99903.47;;;25.20
64184;BMP280;50485;49.768;8.636;2022-09-09T09:31:15;99902.41;;;24.87
64184;BMP280;50485;49.768;8.636;2022-09-09T09:33:43;99895.47;;;24.79
64184;BMP280;50485;49.768;8.636;2022-09-09T09:36:11;99895.22;;;24.70
64184;BMP280;50485;49.768;8.636;2022-09-09T09:38:40;99896.78;;;24.37
64184;BMP280;50485;49.768;8.636;2022-09-09T09:41:16;99878.16;;;24.28
64184;BMP280;50485;49.768;8.636;2022-09-09T09:43:52;99875.72;;;24.34
64184;BMP280;50485;49.768;8.636;2022-09-09T09:46:20;99883.59;;;24.32
64184;BMP280;50485;49.768;8.636;2022-09-09T09:49:04;99878.88;;;24.32
64184;BMP280;50485;49.768;8.636;2022-09-09T09:51:30;99887.47;;;24.34
64184;BMP280;50485;49.768;8.636;2022-09-09T09:56:38;99892.97;;;24.31
64184;BMP280;50485;49.768;8.636;2022-09-09T09:59:04;99885.75;;;24.44
64184;BMP280;50485;49.768;8.636;2022-09-09T10:01:30;99901.66;;;26.20
64184;BMP280;50485;49.768;8.636;2022-09-09T10:03:59;99891.78;;;26.42
64184;BMP280;50485;49.768;8.636;2022-09-09T10:06:35;99894.78;;;25.25
64184;BMP280;50485;49.768;8.636;2022-09-09T10:09:02;99889.03;;;25.16
64184;BMP280;50485;49.768;8.636;2022-09-09T10:11:43;99882.53;;;25.06
64184;BMP280;50485;49.768;8.636;2022-09-09T10:26:55;99873.34;;;24.66
64184;BMP280;50485;49.768;8.636;2022-09-09T10:32:15;99865.84;;;24.70
64184;BMP280;50485;49.768;8.636;2022-09-09T10:37:22;99836.06;;;24.72
64184;BMP280;50485;49.768;8.636;2022-09-09T10:39:50;99848.53;;;24.77
64184;BMP280;50485;49.768;8.636;2022-09-09T10:42:23;99841.56;;;24.72
64184;BMP280;50485;49.768;8.636;2022-09-09T10:44:56;99837.72;;;24.66
64184;BMP280;50485;49.768;8.636;2022-09-09T10:47:30;99834.63;;;24.64
64184;BMP280;50485;49.768;8.636;2022-09-09T10:52:59;99823.56;;;24.71
64184;BMP280;50485;49.768;8.636;2022-09-09T10:55:33;99827.13;;;24.68
64184;BMP280;50485;49.768;8.636;2022-09-09T10:58:01;99821.97;;;24.74
64184;BMP280;50485;49.768;8.636;2022-09-09T11:00:31;99821.28;;;24.66
64184;BMP280;50485;49.768;8.636;2022-09-09T11:03:02;99813.84;;;24.67
64184;BMP280;50485;49.768;8.636;2022-09-09T11:07:58;99823.31;;;24.62
64184;BMP280;50485;49.768;8.636;2022-09-09T11:13:13;99825.31;;;24.58
64184;BMP280;50485;49.768;8.636;2022-09-09T11:15:41;99831.38;;;24.46
64184;BMP280;50485;49.768;8.636;2022-09-09T11:18:19;99835.19;;;24.52
64184;BMP280;50485;49.768;8.636;2022-09-09T11:20:44;99834.72;;;24.57
64184;BMP280;50485;49.768;8.636;2022-09-09T11:23:14;99824.47;;;24.61
64184;BMP280;50485;49.768;8.636;2022-09-09T11:25:43;99832.41;;;24.56
64184;BMP280;50485;49.768;8.636;2022-09-09T11:36:30;99836.63;;;24.60
64184;BMP280;50485;49.768;8.636;2022-09-09T11:39:04;99827.81;;;24.49
64184;BMP280;50485;49.768;8.636;2022-09-09T11:41:33;99836.00;;;24.49
64184;BMP280;50485;49.768;8.636;2022-09-09T11:43:59;99834.00;;;24.53
64184;BMP280;50485;49.768;8.636;2022-09-09T11:46:31;99832.34;;;24.59
64184;BMP280;50485;49.768;8.636;2022-09-09T11:49:02;99830.03;;;24.54
64184;BMP280;50485;49.768;8.636;2022-09-09T11:51:28;99835.13;;;24.56
64184;BMP280;50485;49.768;8.636;2022-09-09T11:54:03;99837.16;;;24.52
64184;BMP280;50485;49.768;8.636;2022-09-09T11:56:46;99841.50;;;24.49
64184;BMP280;50485;49.768;8.636;2022-09-09T11:59:24;99848.16;;;24.48
64184;BMP280;50485;49.768;8.636;2022-09-09T12:01:54;99842.28;;;24.50
64184;BMP280;50485;49.768;8.636;2022-09-09T12:06:56;99851.09;;;24.34
64184;BMP280;50485;49.768;8.636;2022-09-09T12:12:04;99855.94;;;24.19
64184;BMP280;50485;49.768;8.636;2022-09-09T12:17:20;99859.16;;;24.14
64184;BMP280;50485;49.768;8.636;2022-09-09T12:19:47;99852.03;;;24.20
64184;BMP280;50485;49.768;8.636;2022-09-09T12:27:58;99856.94;;;24.36
64184;BMP280;50485;49.768;8.636;2022-09-09T12:30:31;99858.53;;;24.30
64184;BMP280;50485;49.768;8.636;2022-09-09T12:33:01;99853.88;;;24.27
64184;BMP280;50485;49.768;8.636;2022-09-09T12:35:27;99852.88;;;24.17
64184;BMP280;50485;49.768;8.636;2022-09-09T12:37:57;99853.25;;;24.16
64184;BMP280;50485;49.768;8.636;2022-09-09T12:40:25;99859.50;;;24.16
64184;BMP280;50485;49.768;8.636;2022-09-09T12:42:50;99865.00;;;24.13
64184;BMP280;50485;49.768;8.636;2022-09-09T12:45:16;99849.31;;;24.20
64184;BMP280;50485;49.768;8.636;2022-09-09T12:47:47;99846.94;;;24.19
64184;BMP280;50485;49.768;8.636;2022-09-09T12:50:24;99861.47;;;24.16
64184;BMP280;50485;49.768;8.636;2022-09-09T12:52:51;99852.50;;;24.11
64184;BMP280;50485;49.768;8.636;2022-09-09T12:55:19;99854.06;;;24.13
64184;BMP280;50485;49.768;8.636;2022-09-09T12:57:50;99853.41;;;24.01
64184;BMP280;50485;49.768;8.636;2022-09-09T13:00:17;99851.41;;;24.05
64184;BMP280;50485;49.768;8.636;2022-09-09T13:02:49;99848.34;;;24.03
64184;BMP280;50485;49.768;8.636;2022-09-09T13:05:16;99837.72;;;24.05
64184;BMP280;50485;49.768;8.636;2022-09-09T13:07:42;99836.16;;;24.04
64184;BMP280;50485;49.768;8.636;2022-09-09T13:10:10;99841.69;;;24.01
64184;BMP280;50485;49.768;8.636;2022-09-09T13:12:35;99828.53;;;23.92
64184;BMP280;50485;49.768;8.636;2022-09-09T13:15:01;99822.56;;;23.97
64184;BMP280;50485;49.768;8.636;2022-09-09T13:17:27;99824.91;;;23.99
64184;BMP280;50485;49.768;8.636;2022-09-09T13:19:53;99824.53;;;24.00
64184;BMP280;50485;49.768;8.636;2022-09-09T13:22:29;99818.34;;;23.93
64184;BMP280;50485;49.768;8.636;2022-09-09T13:24:58;99835.13;;;23.95
64184;BMP280;50485;49.768;8.636;2022-09-09T13:27:28;99833.91;;;23.99
64184;BMP280;50485;49.768;8.636;2022-09-09T13:29:54;99824.34;;;23.81
64184;BMP280;50485;49.768;8.636;2022-09-09T13:32:20;99822.75;;;23.83
64184;BMP280;50485;49.768;8.636;2022-09-09T13:34:57;99815.75;;;23.82
64184;BMP280;50485;49.768;8.636;2022-09-09T13:37:35;99817.72;;;23.78
64184;BMP280;50485;49.768;8.636;2022-09-09T13:40:01;99826.81;;;23.71
64184;BMP280;50485;49.768;8.636;2022-09-09T13:42:31;99838.88;;;23.74
64184;BMP280;50485;49.768;8.636;2022-09-09T13:44:57;99838.91;;;23.70
64184;BMP280;50485;49.768;8.636;2022-09-09T13:47:28;99847.19;;;23.63
64184;BMP280;50485;49.768;8.636;2022-09-09T13:49:54;99849.09;;;23.66
64184;BMP280;50485;49.768;8.636;2022-09-09T13:52:19;99868.22;;;23.70
64184;BMP280;50485;49.768;8.636;2022-09-09T13:54:50;99860.72;;;23.77
64184;BMP280;50485;49.768;8.636;2022-09-09T13:57:17;99862.63;;;23.81
64184;BMP280;50485;49.768;8.636;2022-09-09T13:59:43;99863.78;;;23.83
64184;BMP280;50485;49.768;8.636;2022-09-09T14:02:08;99870.53;;;23.75
64184;BMP280;50485;49.768;8.636;2022-09-09T14:04:33;99875.94;;;23.82
64184;BMP280;50485;49.768;8.636;2022-09-09T14:06:59;99870.06;;;23.80
64184;BMP280;50485;49.768;8.636;2022-09-09T14:09:25;99872.00;;;23.83
64184;BMP280;50485;49.768;8.636;2022-09-09T14:11:50;99863.78;;;23.83
64184;BMP280;50485;49.768;8.636;2022-09-09T14:14:15;99862.91;;;23.93
64184;BMP280;50485;49.768;8.636;2022-09-09T14:16:40;99865.66;;;23.93
64184;BMP280;50485;49.768;8.636;2022-09-09T14:19:07;99863.81;;;23.79
64184;BMP280;50485;49.768;8.636;2022-09-09T14:21:32;99865.06;;;23.75
64184;BMP280;50485;49.768;8.636;2022-09-09T14:23:57;99862.75;;;23.70
64184;BMP280;50485;49.768;8.636;2022-09-09T14:26:23;99863.16;;;23.68
64184;BMP280;50485;49.768;8.636;2022-09-09T14:28:48;99848.25;;;23.73
64184;BMP280;50485;49.768;8.636;2022-09-09T14:31:15;99844.00;;;23.68
64184;BMP280;50485;49.768;8.636;2022-09-09T14:33:42;99848.28;;;23.69
64184;BMP280;50485;49.768;8.636;2022-09-09T14:36:07;99837.88;;;23.54
64184;BMP280;50485;49.768;8.636;2022-09-09T14:38:33;99841.78;;;23.56
64184;BMP280;50485;49.768;8.636;2022-09-09T14:40:59;99844.13;;;23.58
64184;BMP280;50485;49.768;8.636;2022-09-09T14:43:24;99837.03;;;23.64
64184;BMP280;50485;49.768;8.636;2022-09-09T14:45:51;99835.91;;;23.58
64184;BMP280;50485;49.768;8.636;2022-09-09T14:48:19;99822.63;;;23.56
64184;BMP280;50485;49.768;8.636;2022-09-09T14:50:44;99828.16;;;23.53
64184;BMP280;50485;49.768;8.636;2022-09-09T14:53:09;99822.31;;;23.51
64184;BMP280;50485;49.768;8.636;2022-09-09T14:55:35;99821.44;;;23.57
64184;BMP280;50485;49.768;8.636;2022-09-09T14:58:00;99814.00;;;23.61
64184;BMP280;50485;49.768;8.636;2022-09-09T15:00:26;99817.16;;;23.56
64184;BMP280;50485;49.768;8.636;2022-09-09T15:02:54;99815.22;;;23.57
64184;BMP280;50485;49.768;8.636;2022-09-09T15:05:20;99816.41;;;23.56
64184;BMP280;50485;49.768;8.636;2022-09-09T15:07:45;99821.06;;;23.59
64184;BMP280;50485;49.768;8.636;2022-09-09T15:10:10;99822.59;;;23.60
64184;BMP280;50485;49.768;8.636;2022-09-09T15:12:36;99817.16;;;23.56
64184;BMP280;50485;49.768;8.636;2022-09-09T15:15:01;99803.94;;;23.51
64184;BMP280;50485;49.768;8.636;2022-09-09T15:17:26;99808.63;;;23.51
64184;BMP280;50485;49.768;8.636;2022-09-09T15:19:52;99816.41;;;23.56
64184;BMP280;50485;49.768;8.636;2022-09-09T15:22:18;99811.34;;;23.54
64184;BMP280;50485;49.768;8.636;2022-09-09T15:24:44;99816.47;;;23.49
64184;BMP280;50485;49.768;8.636;2022-09-09T15:27:09;99813.28;;;23.50
64184;BMP280;50485;49.768;8.636;2022-09-09T15:29:34;99807.00;;;23.53
64184;BMP280;50485;49.768;8.636;2022-09-09T15:31:59;99810.66;;;23.39
64184;BMP280;50485;49.768;8.636;2022-09-09T15:34:24;99820.78;;;23.42
64184;BMP280;50485;49.768;8.636;2022-09-09T15:36:50;99831.28;;;23.51
64184;BMP280;50485;49.768;8.636;2022-09-09T15:39:16;99839.13;;;23.49
64184;BMP280;50485;49.768;8.636;2022-09-09T15:41:42;99843.47;;;23.39
64184;BMP280;50485;49.768;8.636;2022-09-09T15:44:08;99850.13;;;23.38
64184;BMP280;50485;49.768;8.636;2022-09-09T15:51:30;99834.53;;;23.35
64184;BMP280;50485;49.768;8.636;2022-09-09T15:53:55;99838.81;;;23.36
64184;BMP280;50485;49.768;8.636;2022-09-09T15:56:21;99826.72;;;23.37
64184;BMP280;50485;49.768;8.636;2022-09-09T15:58:46;99836.91;;;23.33
64184;BMP280;50485;49.768;8.636;2022-09-09T16:01:11;99843.09;;;23.41
64184;BMP280;50485;49.768;8.636;2022-09-09T16:03:38;99853.25;;;23.40